createdAt,value
2022-11-05T00:02:19.629Z,8.07
2022-11-05T00:05:06.051Z,8.85
2022-11-05T00:08:06.439Z,9.07
2022-11-05T00:10:38.457Z,9.55
2022-11-05T00:13:27.844Z,10.70
2022-11-05T00:16:14.582Z,10.38
2022-11-05T00:18:42.088Z,11.10
2022-11-05T00:21:30.028Z,10.70
2022-11-05T00:24:19.259Z,10.82
2022-11-05T00:26:51.150Z,11.05
2022-11-05T00:29:18.638Z,10.50
2022-11-05T00:31:46.549Z,10.68
2022-11-05T00:34:14.107Z,11.90
2022-11-05T00:36:42.035Z,12.85
2022-11-05T00:39:09.575Z,11.73
2022-11-05T00:41:37.550Z,11.15
2022-11-05T00:44:23.910Z,10.90
2022-11-05T00:47:11.743Z,10.75
2022-11-05T00:49:39.325Z,11.43
2022-11-05T00:52:25.945Z,9.80
2022-11-05T00:54:53.565Z,11.52
2022-11-05T00:57:21.370Z,11.18
2022-11-05T00:59:48.929Z,10.30
2022-11-05T01:02:16.970Z,10.90
2022-11-05T01:04:44.668Z,10.52
2022-11-05T01:07:12.603Z,10.25
2022-11-05T01:09:40.094Z,9.85
2022-11-05T01:12:07.973Z,11.13
2022-11-05T01:14:35.585Z,11.10
2022-11-05T01:17:03.481Z,10.63
2022-11-05T01:19:31.978Z,11.55
2022-11-05T01:21:59.906Z,10.73
2022-11-05T01:24:27.524Z,11.13
2022-11-05T01:26:55.374Z,10.90
2022-11-05T01:29:22.921Z,11.23
2022-11-05T01:31:50.855Z,9.70
2022-11-05T01:34:18.411Z,10.80
2022-11-05T01:36:46.461Z,10.18
2022-11-05T01:39:14.080Z,11.07
2022-11-05T01:41:42.161Z,11.55
2022-11-05T01:44:57.601Z,10.55
2022-11-05T01:48:03.363Z,10.60
2022-11-05T01:50:58.309Z,9.93
2022-11-05T01:53:35.805Z,10.10
2022-11-05T01:56:14.807Z,9.25
2022-11-05T01:58:53.070Z,10.02
2022-11-05T02:01:21.269Z,8.48
2022-11-05T02:03:53.523Z,9.87
2022-11-05T02:06:21.762Z,11.13
2022-11-05T02:09:05.770Z,8.77
2022-11-05T02:11:33.720Z,9.35
2022-11-05T02:14:01.643Z,9.70
2022-11-05T02:16:53.042Z,10.43
2022-11-05T02:20:07.749Z,11.02
2022-11-05T02:23:31.818Z,10.57
2022-11-05T02:26:35.957Z,10.98
2022-11-05T02:29:35.408Z,12.02
2022-11-05T02:32:35.777Z,11.15
2022-11-05T02:35:18.105Z,12.43
2022-11-05T02:38:34.564Z,12.05
2022-11-05T02:41:36.578Z,11.15
2022-11-05T02:44:38.547Z,10.95
2022-11-05T02:47:18.194Z,15.38
2022-11-05T02:50:24.546Z,15.15
2022-11-05T02:53:14.812Z,18.05
2022-11-05T02:55:59.793Z,18.42
2022-11-05T02:58:31.103Z,17.25
2022-11-05T03:01:00.428Z,17.25
2022-11-05T03:03:35.184Z,23.65
2022-11-05T03:06:31.004Z,25.58
2022-11-05T03:09:19.660Z,24.90
2022-11-05T03:12:45.693Z,25.63
2022-11-05T03:15:42.421Z,25.92
2022-11-05T03:18:43.486Z,26.88
2022-11-05T03:21:41.404Z,28.30
2022-11-05T03:24:30.213Z,27.52
2022-11-05T03:27:23.683Z,25.60
2022-11-05T03:30:00.429Z,25.00
2022-11-05T03:32:32.913Z,24.05
2022-11-05T03:35:19.889Z,25.40
2022-11-05T03:37:52.612Z,27.77
2022-11-05T03:40:24.080Z,26.80
2022-11-05T03:42:56.402Z,25.13
2022-11-05T03:45:40.750Z,21.08
2022-11-05T03:48:13.207Z,20.00
2022-11-05T03:50:53.160Z,20.17
2022-11-05T03:53:30.284Z,19.05
2022-11-05T03:56:31.147Z,19.20
2022-11-05T03:59:02.040Z,17.67
2022-11-05T04:01:31.348Z,18.02
2022-11-05T04:03:58.970Z,17.08
2022-11-05T04:06:45.519Z,17.75
2022-11-05T04:09:36.358Z,16.48
2022-11-05T04:12:23.039Z,15.85
2022-11-05T04:14:50.852Z,16.10
2022-11-05T04:17:18.680Z,15.68
2022-11-05T04:20:04.992Z,16.15
2022-11-05T04:22:53.736Z,17.25
2022-11-05T04:25:22.441Z,17.33
2022-11-05T04:27:51.250Z,15.90
2022-11-05T04:30:20.237Z,15.20
2022-11-05T04:35:36.677Z,14.07
2022-11-05T04:38:07.812Z,12.63
2022-11-05T04:40:35.773Z,14.02
2022-11-05T04:43:04.821Z,13.27
2022-11-05T04:45:34.810Z,13.10
2022-11-05T04:48:04.238Z,13.75
2022-11-05T04:50:33.274Z,13.18
2022-11-05T04:53:01.193Z,12.50
2022-11-05T04:55:28.916Z,13.95
2022-11-05T04:57:56.998Z,13.85
2022-11-05T05:00:24.979Z,12.82
2022-11-05T05:02:53.031Z,14.15
2022-11-05T05:05:22.606Z,14.00
2022-11-05T05:07:50.637Z,13.10
2022-11-05T05:10:18.313Z,13.48
2022-11-05T05:12:46.203Z,15.10
2022-11-05T05:15:13.989Z,14.70
2022-11-05T05:17:41.906Z,13.80
2022-11-05T05:20:28.141Z,14.13
2022-11-05T05:22:56.220Z,14.63
2022-11-05T05:25:23.906Z,14.82
2022-11-05T05:27:51.764Z,14.68
2022-11-05T05:30:19.361Z,16.15
2022-11-05T05:32:47.216Z,16.38
2022-11-05T05:35:15.121Z,15.75
2022-11-05T05:37:43.426Z,15.82
2022-11-05T05:40:11.939Z,16.75
2022-11-05T05:42:43.181Z,16.25
2022-11-05T05:45:12.778Z,15.02
2022-11-05T05:50:08.381Z,15.23
2022-11-05T05:52:36.194Z,15.25
2022-11-05T05:55:04.467Z,16.98
2022-11-05T05:57:32.469Z,14.98
2022-11-05T06:00:01.943Z,16.50
2022-11-05T06:05:07.932Z,17.63
2022-11-05T06:07:37.404Z,18.20
2022-11-05T06:10:06.349Z,18.60
2022-11-05T06:12:34.313Z,18.33
2022-11-05T06:15:01.914Z,20.27
2022-11-05T06:17:29.813Z,18.50
2022-11-05T06:19:57.271Z,18.25
2022-11-05T06:22:27.231Z,18.08
2022-11-05T06:24:55.158Z,19.42
2022-11-05T06:27:23.031Z,18.50
2022-11-05T06:29:50.519Z,19.83
2022-11-05T06:32:18.312Z,18.42
2022-11-05T06:34:45.845Z,18.50
2022-11-05T06:37:13.675Z,23.30
2022-11-05T06:39:41.154Z,22.38
2022-11-05T06:42:18.422Z,23.65
2022-11-05T06:44:46.885Z,20.60
2022-11-05T06:47:15.015Z,21.77
2022-11-05T06:49:42.517Z,22.17
2022-11-05T06:52:11.237Z,20.23
2022-11-05T06:54:39.075Z,21.52
2022-11-05T06:57:09.913Z,23.50
2022-11-05T06:59:39.075Z,26.75
2022-11-05T07:04:35.323Z,32.27
2022-11-05T07:07:03.305Z,30.95
2022-11-05T07:09:30.896Z,31.52
2022-11-05T07:11:58.958Z,32.85
2022-11-05T07:14:26.446Z,32.10
2022-11-05T07:16:54.280Z,32.88
2022-11-05T07:19:21.830Z,35.45
2022-11-05T07:21:50.937Z,32.00
2022-11-05T07:24:18.607Z,31.85
2022-11-05T07:26:46.541Z,30.23
2022-11-05T07:29:14.061Z,29.67
2022-11-05T07:31:41.911Z,26.67
2022-11-05T07:34:09.354Z,26.15
2022-11-05T07:36:39.463Z,27.65
2022-11-05T07:39:07.309Z,28.33
2022-11-05T07:41:35.123Z,29.42
2022-11-05T07:44:03.924Z,29.20
2022-11-05T07:46:32.153Z,31.75
2022-11-05T07:48:59.638Z,30.60
2022-11-05T07:51:27.591Z,31.02
2022-11-05T07:53:55.007Z,32.47
2022-11-05T07:56:25.714Z,31.50
2022-11-05T07:58:53.172Z,30.45
2022-11-05T08:01:21.114Z,29.77
2022-11-05T08:03:48.824Z,28.60
2022-11-05T08:06:16.801Z,30.75
2022-11-05T08:08:44.314Z,28.35
2022-11-05T08:11:12.845Z,27.33
2022-11-05T08:13:40.481Z,28.80
2022-11-05T08:16:09.659Z,29.70
2022-11-05T08:18:37.683Z,30.10
2022-11-05T08:21:06.366Z,30.17
2022-11-05T08:26:39.867Z,32.08
2022-11-05T08:29:07.277Z,35.08
2022-11-05T08:31:37.134Z,34.88
2022-11-05T08:36:32.304Z,33.03
2022-11-05T08:38:59.813Z,35.25
2022-11-05T08:41:27.621Z,33.85
2022-11-05T08:43:56.621Z,34.70
2022-11-05T08:46:24.381Z,35.28
2022-11-05T08:48:51.869Z,34.53
2022-11-05T08:51:38.628Z,36.85
2022-11-05T08:54:06.228Z,38.40
2022-11-05T08:56:34.066Z,38.97
2022-11-05T08:59:01.658Z,39.90
2022-11-05T09:01:29.564Z,37.17
2022-11-05T09:03:57.146Z,36.33
2022-11-05T09:06:25.027Z,34.35
2022-11-05T09:08:52.462Z,36.50
2022-11-05T09:11:20.234Z,33.80
2022-11-05T09:13:47.724Z,36.05
2022-11-05T09:16:25.003Z,36.15
2022-11-05T09:18:52.835Z,34.70
2022-11-05T09:21:20.600Z,35.60
2022-11-05T09:23:48.330Z,37.05
2022-11-05T09:26:16.179Z,33.55
2022-11-05T09:28:43.723Z,36.13
2022-11-05T09:31:12.682Z,33.25
2022-11-05T09:33:41.543Z,34.53
2022-11-05T09:36:09.670Z,32.15
2022-11-05T09:38:37.251Z,34.03
2022-11-05T09:41:31.164Z,35.67
2022-11-05T09:44:37.570Z,34.83
2022-11-05T09:47:13.978Z,35.88
2022-11-05T09:49:54.366Z,35.08
2022-11-05T09:52:27.983Z,36.45
2022-11-05T09:54:56.831Z,40.78
2022-11-05T09:57:56.034Z,48.38
2022-11-05T10:00:23.840Z,44.15
2022-11-05T10:03:19.450Z,43.20
2022-11-05T10:05:49.289Z,40.42
2022-11-05T10:08:32.826Z,33.72
2022-11-05T10:11:16.519Z,32.72
2022-11-05T10:14:00.183Z,32.55
2022-11-05T10:16:31.610Z,31.85
2022-11-05T10:19:06.510Z,31.63
2022-11-05T10:22:04.436Z,34.05
2022-11-05T10:24:23.543Z,32.90
2022-11-05T10:26:53.894Z,33.95
2022-11-05T10:29:30.267Z,35.10
2022-11-05T10:32:00.356Z,37.55
2022-11-05T10:34:33.796Z,34.63
2022-11-05T10:37:01.644Z,35.80
2022-11-05T10:39:32.583Z,36.53
2022-11-05T10:42:43.078Z,36.38
2022-11-05T10:45:22.919Z,35.20
2022-11-05T10:47:59.804Z,38.00
2022-11-05T10:50:30.171Z,38.55
2022-11-05T10:53:07.945Z,40.63
2022-11-05T10:55:41.360Z,40.83
2022-11-05T10:58:30.356Z,43.80
2022-11-05T11:00:58.237Z,42.42
2022-11-05T11:04:03.776Z,43.85
2022-11-05T11:06:37.881Z,52.00
2022-11-05T11:09:29.054Z,52.92
2022-11-05T11:12:21.712Z,50.30
2022-11-05T11:15:02.641Z,46.97
2022-11-05T11:17:32.832Z,44.28
2022-11-05T11:20:28.063Z,42.80
2022-11-05T11:23:13.956Z,35.15
2022-11-05T11:26:01.405Z,26.10
2022-11-05T11:28:48.136Z,20.90
2022-11-05T11:31:22.931Z,17.63
2022-11-05T11:33:58.407Z,17.65
2022-11-05T11:36:33.482Z,17.50
2022-11-05T11:39:06.757Z,16.52
2022-11-05T11:41:42.052Z,15.50
2022-11-05T11:44:27.319Z,15.00
2022-11-05T11:47:02.683Z,12.93
2022-11-05T11:49:57.979Z,14.25
2022-11-05T11:52:34.811Z,14.23
2022-11-05T11:55:11.837Z,15.02
2022-11-05T11:57:52.991Z,14.40
2022-11-05T12:00:24.161Z,15.30
2022-11-05T12:03:31.615Z,14.77
2022-11-05T12:06:33.779Z,14.13
2022-11-05T12:09:45.901Z,12.30
2022-11-05T12:12:19.669Z,11.27
2022-11-05T12:15:20.024Z,11.05
2022-11-05T12:18:08.739Z,11.20
2022-11-05T12:21:51.884Z,11.20
2022-11-05T12:25:11.761Z,7.72
2022-11-05T12:28:00.208Z,8.10
2022-11-05T12:30:40.231Z,9.05
2022-11-05T12:33:46.809Z,10.23
2022-11-05T12:36:45.737Z,8.57
2022-11-05T12:39:25.174Z,8.50
2022-11-05T12:42:01.230Z,9.20
2022-11-05T12:44:38.211Z,8.85
2022-11-05T12:47:30.470Z,8.95
2022-11-05T12:50:17.438Z,9.68
2022-11-05T12:53:11.292Z,13.35
2022-11-05T12:55:48.602Z,14.77
2022-11-05T12:58:43.071Z,13.85
2022-11-05T13:01:21.658Z,15.57
2022-11-05T13:04:27.294Z,18.35
2022-11-05T13:06:57.532Z,17.30
2022-11-05T13:09:59.591Z,19.73
2022-11-05T13:12:31.359Z,18.38
2022-11-05T13:15:16.064Z,16.58
2022-11-05T13:17:59.863Z,16.60
2022-11-05T13:20:37.703Z,17.33
2022-11-05T13:23:16.377Z,19.08
2022-11-05T13:25:55.795Z,20.10
2022-11-05T13:28:48.167Z,19.35
2022-11-05T13:31:22.258Z,18.52
2022-11-05T13:33:52.348Z,18.55
2022-11-05T13:36:46.025Z,17.25
2022-11-05T13:39:27.728Z,16.10
2022-11-05T13:42:30.734Z,14.32
2022-11-05T13:45:35.156Z,13.57
2022-11-05T13:48:27.520Z,13.18
2022-11-05T13:51:27.429Z,11.55
2022-11-05T13:54:19.053Z,11.82
2022-11-05T13:57:39.056Z,12.50
2022-11-05T14:00:27.363Z,9.60
2022-11-05T14:02:58.058Z,9.60
2022-11-05T14:05:40.142Z,9.63
2022-11-05T14:08:16.188Z,10.32
2022-11-05T14:10:56.992Z,10.82
2022-11-05T14:13:36.862Z,8.77
2022-11-05T14:16:09.173Z,7.88
2022-11-05T14:18:47.810Z,7.40
2022-11-05T14:21:27.682Z,7.13
2022-11-05T14:26:28.773Z,7.13
2022-11-05T14:29:24.874Z,8.15
2022-11-05T14:32:09.609Z,8.85
2022-11-05T14:35:14.449Z,8.40
2022-11-05T14:37:53.356Z,6.85
2022-11-05T14:40:47.561Z,7.70
2022-11-05T14:43:19.304Z,9.00
2022-11-05T14:46:06.467Z,8.07
2022-11-05T14:48:58.416Z,12.48
2022-11-05T14:51:44.287Z,12.15
2022-11-05T14:54:24.277Z,15.85
2022-11-05T14:56:59.457Z,16.52
2022-11-05T14:59:32.952Z,21.50
2022-11-05T15:02:15.083Z,21.65
2022-11-05T15:04:45.636Z,20.92
2022-11-05T15:07:37.515Z,24.70
2022-11-05T15:10:17.149Z,31.73
2022-11-05T15:12:56.608Z,24.48
2022-11-05T15:15:30.337Z,25.02
2022-11-05T15:18:31.045Z,21.27
2022-11-05T15:21:02.501Z,23.58
2022-11-05T15:23:40.965Z,20.08
2022-11-05T15:26:34.464Z,18.20
2022-11-05T15:29:02.075Z,20.25
2022-11-05T15:31:43.214Z,20.23
2022-11-05T15:34:31.880Z,19.58
2022-11-05T15:37:22.049Z,20.55
2022-11-05T15:39:55.515Z,20.52
2022-11-05T15:42:26.649Z,20.08
2022-11-05T15:44:59.820Z,22.92
2022-11-05T15:47:34.654Z,22.98
2022-11-05T15:50:14.013Z,23.17
2022-11-05T15:52:53.901Z,24.08
2022-11-05T15:55:25.280Z,25.30
2022-11-05T15:58:04.451Z,26.35
2022-11-05T16:00:36.312Z,27.52
2022-11-05T16:03:32.337Z,26.65
2022-11-05T16:06:01.760Z,25.98
2022-11-05T16:08:31.579Z,27.48
2022-11-05T16:11:00.871Z,27.80
2022-11-05T16:13:41.295Z,28.23
2022-11-05T16:16:14.825Z,28.92
2022-11-05T16:18:44.810Z,29.20
2022-11-05T16:21:17.627Z,29.25
2022-11-05T16:23:48.381Z,29.27
2022-11-05T16:29:47.581Z,28.73
2022-11-05T16:32:18.272Z,29.90
2022-11-05T16:34:50.941Z,29.92
2022-11-05T16:37:24.195Z,31.55
2022-11-05T16:39:53.273Z,33.45
2022-11-05T16:42:23.423Z,29.60
2022-11-05T16:44:54.143Z,30.40
2022-11-05T16:47:23.588Z,29.85
2022-11-05T16:49:51.449Z,32.78
2022-11-05T16:52:19.522Z,32.53
2022-11-05T16:54:47.355Z,32.58
2022-11-05T16:57:27.476Z,33.00
2022-11-05T16:59:57.104Z,30.80
2022-11-05T17:02:25.072Z,30.45
2022-11-05T17:04:53.145Z,26.73
2022-11-05T17:07:20.684Z,26.30
2022-11-05T17:09:48.549Z,23.85
2022-11-05T17:12:16.839Z,23.35
2022-11-05T17:14:44.576Z,21.70
2022-11-05T17:17:12.178Z,23.65
2022-11-05T17:19:42.641Z,22.88
2022-11-05T17:22:10.293Z,21.73
2022-11-05T17:24:38.937Z,21.50
2022-11-05T17:27:06.483Z,28.08
2022-11-05T17:29:35.116Z,24.25
2022-11-05T17:32:02.710Z,24.00
2022-11-05T17:34:30.543Z,23.45
2022-11-05T17:36:58.244Z,23.00
2022-11-05T17:39:31.212Z,24.92
2022-11-05T17:41:59.253Z,25.08
2022-11-05T17:44:27.055Z,24.90
2022-11-05T17:46:54.520Z,23.83
2022-11-05T17:49:22.322Z,23.85
2022-11-05T17:51:49.798Z,23.20
2022-11-05T17:54:17.587Z,23.73
2022-11-05T17:56:45.061Z,23.63
2022-11-05T17:59:13.143Z,23.27
2022-11-05T18:01:43.635Z,24.13
2022-11-05T18:04:12.516Z,23.33
2022-11-05T18:06:41.331Z,24.58
2022-11-05T18:09:11.113Z,21.42
2022-11-05T18:14:08.396Z,21.13
2022-11-05T18:16:36.178Z,21.55
2022-11-05T18:19:04.552Z,22.85
2022-11-05T18:21:32.124Z,21.20
2022-11-05T18:24:04.402Z,19.90
2022-11-05T18:26:32.884Z,20.00
2022-11-05T18:29:02.490Z,20.40
2022-11-05T18:31:30.163Z,20.52
2022-11-05T18:33:59.878Z,21.38
2022-11-05T18:36:30.910Z,20.50
2022-11-05T18:39:01.152Z,21.05
2022-11-05T18:41:28.897Z,21.42
2022-11-05T18:44:01.697Z,20.73
2022-11-05T18:46:56.965Z,20.73
2022-11-05T18:49:21.927Z,20.38
2022-11-05T18:51:49.440Z,19.77
2022-11-05T18:54:18.673Z,19.25
2022-11-05T18:56:46.605Z,19.95
2022-11-05T19:02:06.741Z,17.70
2022-11-05T19:04:38.534Z,19.38
2022-11-05T19:07:08.173Z,19.80
2022-11-05T19:09:37.887Z,17.08
2022-11-05T19:12:07.178Z,18.67
2022-11-05T19:14:36.121Z,17.30
2022-11-05T19:17:04.318Z,16.50
2022-11-05T19:19:32.182Z,16.73
2022-11-05T19:21:59.823Z,18.05
2022-11-05T19:24:27.955Z,17.33
2022-11-05T19:26:55.881Z,17.33
2022-11-05T19:29:23.810Z,17.95
2022-11-05T19:31:51.348Z,17.58
2022-11-05T19:34:19.322Z,18.27
2022-11-05T19:36:47.069Z,16.95
2022-11-05T19:39:15.307Z,16.75
2022-11-05T19:41:42.812Z,17.95
2022-11-05T19:44:11.372Z,18.27
2022-11-05T19:46:38.886Z,16.38
2022-11-05T19:49:06.664Z,17.50
2022-11-05T19:51:34.495Z,16.70
2022-11-05T19:54:05.790Z,17.88
2022-11-05T19:56:36.692Z,17.38
2022-11-05T19:59:08.869Z,17.58
2022-11-05T20:01:37.645Z,16.80
2022-11-05T20:04:05.968Z,17.88
2022-11-05T20:06:38.960Z,18.13
2022-11-05T20:09:27.102Z,18.85
2022-11-05T20:11:56.614Z,18.70
2022-11-05T20:14:26.363Z,18.80
2022-11-05T20:16:54.252Z,18.55
2022-11-05T20:19:23.338Z,19.48
2022-11-05T20:21:50.968Z,18.35
2022-11-05T20:24:24.624Z,18.17
2022-11-05T20:26:55.445Z,20.98
2022-11-05T20:29:29.078Z,19.67
2022-11-05T20:32:02.306Z,21.10
2022-11-05T20:34:32.118Z,20.58
2022-11-05T20:39:28.918Z,20.50
2022-11-05T20:41:56.942Z,20.30
2022-11-05T20:44:24.948Z,19.57
2022-11-05T20:46:52.493Z,22.10
2022-11-05T20:49:25.157Z,22.90
2022-11-05T20:51:53.740Z,22.30
2022-11-05T20:54:22.014Z,23.13
2022-11-05T20:56:49.757Z,22.90
2022-11-05T20:59:17.641Z,22.60
2022-11-05T21:01:45.269Z,22.92
2022-11-05T21:04:13.186Z,22.33
2022-11-05T21:06:40.658Z,25.13
2022-11-05T21:09:08.638Z,24.77
2022-11-05T21:11:56.157Z,24.67
2022-11-05T21:14:24.021Z,25.10
2022-11-05T21:16:51.785Z,24.10
2022-11-05T21:19:19.913Z,23.65
2022-11-05T21:21:47.909Z,27.75
2022-11-05T21:24:16.071Z,29.02
2022-11-05T21:26:43.568Z,28.52
2022-11-05T21:29:11.440Z,26.10
2022-11-05T21:31:38.982Z,27.60
2022-11-05T21:34:07.050Z,28.15
2022-11-05T21:36:34.884Z,27.35
2022-11-05T21:39:06.624Z,26.42
2022-11-05T21:41:36.717Z,26.40
2022-11-05T21:44:04.827Z,27.70
2022-11-05T21:46:32.307Z,26.10
2022-11-05T21:49:00.175Z,25.45
2022-11-05T21:51:46.556Z,25.77
2022-11-05T21:54:32.886Z,25.92
2022-11-05T21:57:18.804Z,24.20
2022-11-05T21:59:51.436Z,25.50
2022-11-05T22:02:25.268Z,25.70
2022-11-05T22:04:56.348Z,24.70
2022-11-05T22:07:31.738Z,29.17
2022-11-05T22:10:00.772Z,27.98
2022-11-05T22:12:28.863Z,27.17
2022-11-05T22:14:57.136Z,25.02
2022-11-05T22:17:24.993Z,26.15
2022-11-05T22:19:53.119Z,25.58
2022-11-05T22:22:21.183Z,27.25
2022-11-05T22:24:49.252Z,28.88
2022-11-05T22:27:21.489Z,26.70
2022-11-05T22:29:50.279Z,28.88
2022-11-05T22:32:18.337Z,30.27
2022-11-05T22:34:48.712Z,31.70
2022-11-05T22:37:16.522Z,32.38
2022-11-05T22:39:44.352Z,33.20
2022-11-05T22:42:11.914Z,32.35
2022-11-05T22:44:39.895Z,32.72
2022-11-05T22:47:07.758Z,35.38
2022-11-05T22:49:35.652Z,36.15
2022-11-05T22:52:03.358Z,35.10
2022-11-05T22:54:36.380Z,36.10
2022-11-05T22:57:06.865Z,36.78
2022-11-05T22:59:34.718Z,35.72
2022-11-05T23:02:08.248Z,35.65
2022-11-05T23:04:38.219Z,36.97
2022-11-05T23:07:27.647Z,35.40
2022-11-05T23:10:14.676Z,36.00
2022-11-05T23:12:44.458Z,35.22
2022-11-05T23:15:31.764Z,34.95
2022-11-05T23:18:17.791Z,36.25
2022-11-05T23:21:04.260Z,35.67
2022-11-05T23:23:50.494Z,34.08
2022-11-05T23:26:36.866Z,35.38
2022-11-05T23:29:04.427Z,32.80
2022-11-05T23:31:51.567Z,33.88
2022-11-05T23:34:19.879Z,32.00
2022-11-05T23:37:06.563Z,33.80
2022-11-05T23:39:39.662Z,34.40
2022-11-05T23:42:29.728Z,33.13
2022-11-05T23:45:15.753Z,30.17
2022-11-05T23:48:02.227Z,30.85
2022-11-05T23:50:35.634Z,30.33
2022-11-05T23:53:05.161Z,28.17
2022-11-05T23:55:32.672Z,28.42
2022-11-05T23:58:00.749Z,26.50
